Time;durP1;ratioP1;P1;durP2;ratioP2;P2;SDS_P1;SDS_P2;PMS_P1;PMS_P2;Temp;Humidity;BMP_temperature;BMP_pressure;BME280_temperature;BME280_humidity;BME280_pressure;Samples;Min_cycle;Max_cycle;Signal;HPM_P1;HPM_P2
2022/03/06 00:01:50;;;;;;;32.22;11.80;;;;;;;;;;5058472;28;20523;-60
2022/03/06 00:04:16;;;;;;;30.90;11.40;;;;;;;;;;5058438;28;20495;-58
2022/03/06 00:06:41;;;;;;;31.70;11.73;;;;;;;;;;5055235;28;20021;-58
2022/03/06 00:09:07;;;;;;;30.05;12.07;;;;;;;;;;5053587;28;20124;-58
2022/03/06 00:11:32;;;;;;;32.22;11.30;;;;;;;;;;5062783;28;20036;-58
2022/03/06 00:13:58;;;;;;;33.50;11.50;;;;;;;;;;5067169;28;20055;-58
2022/03/06 00:16:23;;;;;;;25.48;9.88;;;;;;;;;;5057583;28;20028;-59
2022/03/06 00:18:49;;;;;;;30.63;11.02;;;;;;;;;;5067213;28;20025;-59
2022/03/06 00:21:14;;;;;;;26.63;9.82;;;;;;;;;;5059592;28;20483;-57
2022/03/06 00:23:40;;;;;;;34.97;11.98;;;;;;;;;;5060488;28;20120;-58
2022/03/06 00:26:07;;;;;;;31.85;11.00;;;;;;;;;;5062235;28;20038;-60
2022/03/06 00:28:33;;;;;;;32.67;11.30;;;;;;;;;;5063929;28;20069;-58
2022/03/06 00:30:58;;;;;;;35.05;11.60;;;;;;;;;;5063941;28;20426;-60
2022/03/06 00:33:24;;;;;;;32.90;12.45;;;;;;;;;;5058961;28;20404;-59
2022/03/06 00:35:49;;;;;;;28.75;9.75;;;;;;;;;;5056668;28;20025;-60
2022/03/06 00:38:15;;;;;;;26.27;9.98;;;;;;;;;;5064151;28;20395;-59
2022/03/06 00:40:42;;;;;;;29.15;10.40;;;;;;;;;;5063039;28;20076;-59
2022/03/06 00:43:07;;;;;;;27.35;9.60;;;;;;;;;;5060004;28;20479;-59
2022/03/06 00:45:33;;;;;;;25.55;9.95;;;;;;;;;;5059937;28;20044;-58
2022/03/06 00:47:58;;;;;;;26.15;10.02;;;;;;;;;;5057144;28;20021;-58
2022/03/06 00:50:24;;;;;;;31.00;10.82;;;;;;;;;;5058877;28;20040;-59
2022/03/06 00:52:49;;;;;;;24.90;9.63;;;;;;;;;;5065462;28;20100;-58
2022/03/06 00:55:15;;;;;;;23.92;10.18;;;;;;;;;;5061448;28;20112;-59
2022/03/06 00:57:40;;;;;;;27.98;9.93;;;;;;;;;;5060258;28;20055;-59
2022/03/06 01:00:07;;;;;;;28.42;10.07;;;;;;;;;;5054009;28;20025;-57
2022/03/06 01:02:33;;;;;;;26.83;9.60;;;;;;;;;;5061270;28;20036;-59
2022/03/06 01:04:58;;;;;;;25.85;10.20;;;;;;;;;;5056307;28;20028;-58
2022/03/06 01:07:24;;;;;;;33.58;11.60;;;;;;;;;;5056395;28;20020;-57
2022/03/06 01:09:49;;;;;;;27.77;10.63;;;;;;;;;;5061276;28;20502;-58
2022/03/06 01:12:15;;;;;;;27.73;10.63;;;;;;;;;;5064364;28;20056;-57
2022/03/06 01:14:40;;;;;;;28.00;10.43;;;;;;;;;;5057688;28;20024;-58
2022/03/06 01:17:06;;;;;;;28.40;11.32;;;;;;;;;;5061914;28;20113;-58
2022/03/06 01:19:31;;;;;;;32.20;10.57;;;;;;;;;;5062184;28;20028;-56
2022/03/06 01:21:57;;;;;;;37.65;10.77;;;;;;;;;;5066250;28;20031;-58
2022/03/06 01:24:22;;;;;;;29.45;11.20;;;;;;;;;;5056537;28;20050;-58
2022/03/06 01:26:48;;;;;;;33.03;13.00;;;;;;;;;;5058532;28;20021;-59
2022/03/06 01:29:13;;;;;;;40.15;12.73;;;;;;;;;;5049345;28;20041;-59
2022/03/06 01:31:39;;;;;;;34.10;12.52;;;;;;;;;;5051805;28;20024;-59
2022/03/06 01:34:04;;;;;;;36.47;13.18;;;;;;;;;;5058969;28;20510;-59
2022/03/06 01:36:31;;;;;;;33.53;11.32;;;;;;;;;;5056002;28;20036;-56
2022/03/06 01:38:57;;;;;;;42.25;15.57;;;;;;;;;;5057306;28;20032;-59
2022/03/06 01:41:24;;;;;;;40.95;14.05;;;;;;;;;;5055712;28;20067;-57
2022/03/06 01:43:49;;;;;;;27.80;10.43;;;;;;;;;;5051396;28;20028;-59
2022/03/06 01:46:15;;;;;;;29.58;10.93;;;;;;;;;;5058121;28;20016;-59
2022/03/06 01:48:41;;;;;;;29.85;11.07;;;;;;;;;;5050490;28;20738;-58
2022/03/06 01:51:07;;;;;;;28.95;10.38;;;;;;;;;;5058219;28;20024;-58
2022/03/06 01:53:32;;;;;;;30.65;11.68;;;;;;;;;;5059403;28;20113;-57
2022/03/06 01:55:57;;;;;;;28.33;10.90;;;;;;;;;;5058602;28;20445;-58
2022/03/06 01:58:23;;;;;;;25.63;10.40;;;;;;;;;;5056003;28;20032;-57
2022/03/06 02:00:49;;;;;;;27.00;10.55;;;;;;;;;;5061941;28;20480;-58
2022/03/06 02:03:16;;;;;;;26.77;11.02;;;;;;;;;;5063970;28;20028;-58
2022/03/06 02:05:43;;;;;;;34.22;11.85;;;;;;;;;;5056267;28;20029;-61
2022/03/06 02:08:08;;;;;;;32.50;11.90;;;;;;;;;;5054997;28;20024;-59
2022/03/06 02:10:35;;;;;;;27.55;10.63;;;;;;;;;;5053815;28;20494;-59
2022/03/06 02:13:00;;;;;;;30.30;10.90;;;;;;;;;;5056264;28;20048;-59
2022/03/06 02:15:26;;;;;;;28.10;10.32;;;;;;;;;;5056904;28;20510;-59
2022/03/06 02:17:51;;;;;;;33.00;11.05;;;;;;;;;;5052293;28;20052;-59
2022/03/06 02:20:21;;;;;;;31.40;10.88;;;;;;;;;;5060740;28;20028;-59
2022/03/06 02:22:52;;;;;;;29.88;10.60;;;;;;;;;;5061359;28;20411;-58
2022/03/06 02:25:28;;;;;;;28.38;10.85;;;;;;;;;;5060940;28;20572;-59
2022/03/06 02:27:56;;;;;;;27.50;10.77;;;;;;;;;;5057569;28;20430;-59
2022/03/06 02:30:24;;;;;;;32.40;10.50;;;;;;;;;;5066856;28;20676;-60
2022/03/06 02:32:51;;;;;;;34.38;11.85;;;;;;;;;;5058696;28;20017;-59
2022/03/06 02:35:17;;;;;;;32.63;9.88;;;;;;;;;;5058740;28;20039;-59
2022/03/06 02:37:44;;;;;;;24.92;10.02;;;;;;;;;;5064456;28;20955;-58
2022/03/06 02:40:11;;;;;;;31.25;12.15;;;;;;;;;;5059663;28;20479;-59
2022/03/06 02:42:39;;;;;;;28.38;10.55;;;;;;;;;;5062328;28;20056;-60
2022/03/06 02:45:09;;;;;;;39.47;13.07;;;;;;;;;;5056540;28;20028;-59
2022/03/06 02:47:34;;;;;;;30.58;10.68;;;;;;;;;;5068238;28;20039;-58
2022/03/06 02:50:02;;;;;;;29.75;10.85;;;;;;;;;;5059898;28;20555;-58
2022/03/06 02:52:28;;;;;;;28.02;10.85;;;;;;;;;;5065216;28;20073;-57
2022/03/06 02:54:54;;;;;;;29.25;11.32;;;;;;;;;;5065988;28;20541;-58
2022/03/06 02:57:19;;;;;;;33.88;12.05;;;;;;;;;;5066558;28;20025;-59
2022/03/06 02:59:45;;;;;;;29.52;11.23;;;;;;;;;;5063654;28;20025;-59
2022/03/06 03:02:10;;;;;;;29.40;11.38;;;;;;;;;;5056511;28;20025;-59
2022/03/06 03:04:38;;;;;;;33.50;11.73;;;;;;;;;;5063235;28;20028;-58
2022/03/06 03:07:04;;;;;;;28.50;10.55;;;;;;;;;;5067588;28;20039;-58
2022/03/06 03:09:30;;;;;;;33.15;11.77;;;;;;;;;;5060658;28;20040;-59
2022/03/06 03:11:55;;;;;;;29.85;11.80;;;;;;;;;;5065889;28;20053;-58
2022/03/06 03:14:22;;;;;;;31.42;11.30;;;;;;;;;;5061767;28;20392;-58
2022/03/06 03:16:47;;;;;;;28.85;11.10;;;;;;;;;;5057181;28;20372;-58
2022/03/06 03:19:13;;;;;;;32.78;11.10;;;;;;;;;;5061835;28;20031;-59
2022/03/06 03:21:39;;;;;;;30.38;11.88;;;;;;;;;;5063530;28;20042;-59
2022/03/06 03:24:05;;;;;;;32.22;11.70;;;;;;;;;;5058366;28;21596;-58
2022/03/06 03:26:30;;;;;;;34.42;10.93;;;;;;;;;;5060661;28;20507;-59
2022/03/06 03:28:56;;;;;;;28.42;10.23;;;;;;;;;;5053933;28;20033;-58
2022/03/06 03:31:21;;;;;;;31.38;11.00;;;;;;;;;;5063251;28;20539;-59
2022/03/06 03:33:47;;;;;;;30.08;10.95;;;;;;;;;;5062644;28;20059;-58
2022/03/06 03:36:12;;;;;;;32.58;11.43;;;;;;;;;;5066321;28;20056;-60
2022/03/06 03:38:39;;;;;;;28.50;10.90;;;;;;;;;;5053761;28;20094;-59
2022/03/06 03:41:05;;;;;;;29.83;11.30;;;;;;;;;;5058488;28;20032;-59
2022/03/06 03:43:31;;;;;;;34.03;11.52;;;;;;;;;;5068098;28;20021;-58
2022/03/06 03:45:59;;;;;;;33.88;11.60;;;;;;;;;;5056266;28;20108;-59
2022/03/06 03:48:26;;;;;;;33.25;11.43;;;;;;;;;;5056938;28;20032;-58
2022/03/06 03:50:54;;;;;;;31.92;11.70;;;;;;;;;;5058873;28;20364;-57
2022/03/06 03:53:20;;;;;;;36.40;11.95;;;;;;;;;;5066143;28;20077;-58
2022/03/06 03:55:46;;;;;;;30.88;11.27;;;;;;;;;;5065397;28;20025;-58
2022/03/06 03:58:11;;;;;;;36.95;13.52;;;;;;;;;;5060173;28;20052;-58
2022/03/06 04:00:37;;;;;;;36.22;11.98;;;;;;;;;;5065349;28;20035;-57
2022/03/06 04:03:03;;;;;;;32.47;11.77;;;;;;;;;;5061181;28;20025;-57
2022/03/06 04:05:28;;;;;;;30.92;12.23;;;;;;;;;;5065085;28;20024;-57
2022/03/06 04:07:54;;;;;;;37.28;12.20;;;;;;;;;;5057422;28;20495;-57
2022/03/06 04:10:19;;;;;;;34.78;12.38;;;;;;;;;;5057782;28;20067;-57
2022/03/06 04:12:45;;;;;;;31.83;10.82;;;;;;;;;;5059000;28;20484;-59
2022/03/06 04:15:10;;;;;;;38.75;12.75;;;;;;;;;;5063683;28;20028;-57
2022/03/06 04:17:36;;;;;;;31.85;11.18;;;;;;;;;;5057961;28;20055;-57
2022/03/06 04:20:02;;;;;;;37.92;11.27;;;;;;;;;;5062868;28;20020;-57
2022/03/06 04:22:28;;;;;;;36.47;12.90;;;;;;;;;;5068527;28;20024;-59
2022/03/06 04:24:53;;;;;;;34.22;11.60;;;;;;;;;;5057842;28;20391;-60
2022/03/06 04:27:19;;;;;;;38.72;13.77;;;;;;;;;;5059031;28;20047;-59
2022/03/06 04:29:44;;;;;;;32.35;10.73;;;;;;;;;;5058900;28;20029;-60
2022/03/06 04:32:09;;;;;;;33.47;12.32;;;;;;;;;;5051628;28;20050;-59
2022/03/06 04:34:36;;;;;;;32.13;12.05;;;;;;;;;;5065677;28;20040;-59
2022/03/06 04:37:01;;;;;;;31.08;11.15;;;;;;;;;;5054350;28;20029;-60
2022/03/06 04:39:28;;;;;;;30.70;11.43;;;;;;;;;;5057756;28;20020;-60
2022/03/06 04:41:54;;;;;;;36.78;12.45;;;;;;;;;;5060873;28;20096;-59
2022/03/06 04:44:19;;;;;;;37.38;12.18;;;;;;;;;;5057757;28;20068;-59
2022/03/06 04:46:46;;;;;;;39.45;12.90;;;;;;;;;;5059396;28;20043;-60
2022/03/06 04:49:12;;;;;;;37.28;14.35;;;;;;;;;;5061115;28;20024;-59
2022/03/06 04:51:37;;;;;;;38.22;13.23;;;;;;;;;;5062879;28;20028;-59
2022/03/06 04:54:03;;;;;;;38.00;13.65;;;;;;;;;;5057999;28;20078;-59
2022/03/06 04:56:29;;;;;;;37.63;12.85;;;;;;;;;;5057912;28;20032;-58
2022/03/06 04:58:55;;;;;;;40.65;13.18;;;;;;;;;;5054472;28;20055;-59
2022/03/06 05:01:20;;;;;;;39.40;13.10;;;;;;;;;;5057166;28;20021;-58
2022/03/06 05:03:46;;;;;;;32.42;11.82;;;;;;;;;;5059642;28;20108;-58
2022/03/06 05:06:11;;;;;;;37.95;13.15;;;;;;;;;;5063697;28;20070;-59
2022/03/06 05:08:37;;;;;;;36.63;12.75;;;;;;;;;;5060399;28;20116;-57
2022/03/06 05:11:02;;;;;;;34.25;12.63;;;;;;;;;;5065360;28;20119;-58
2022/03/06 05:13:27;;;;;;;42.67;12.48;;;;;;;;;;5059267;28;20032;-58
2022/03/06 05:15:53;;;;;;;35.17;12.70;;;;;;;;;;5054517;28;20453;-58
2022/03/06 05:18:19;;;;;;;37.78;14.00;;;;;;;;;;5058702;28;20035;-59
2022/03/06 05:20:44;;;;;;;40.95;13.75;;;;;;;;;;5058800;28;20064;-59
2022/03/06 05:23:10;;;;;;;39.53;14.50;;;;;;;;;;5059436;28;20123;-58
2022/03/06 05:25:35;;;;;;;42.70;14.10;;;;;;;;;;5055114;28;20433;-59
2022/03/06 05:28:01;;;;;;;40.38;13.52;;;;;;;;;;5053656;28;20434;-58
2022/03/06 05:30:27;;;;;;;38.03;13.32;;;;;;;;;;5053218;28;20086;-58
2022/03/06 05:32:52;;;;;;;42.80;14.30;;;;;;;;;;5056675;28;20086;-58
2022/03/06 05:35:17;;;;;;;42.72;14.45;;;;;;;;;;5057409;28;20472;-58
2022/03/06 05:37:43;;;;;;;39.92;14.00;;;;;;;;;;5056837;28;20068;-58
2022/03/06 05:40:09;;;;;;;44.47;13.50;;;;;;;;;;5056288;28;20036;-58
2022/03/06 05:42:34;;;;;;;40.13;13.15;;;;;;;;;;5061150;28;20047;-58
2022/03/06 05:45:00;;;;;;;41.88;13.35;;;;;;;;;;5059348;28;20032;-58
2022/03/06 05:47:25;;;;;;;42.50;13.40;;;;;;;;;;5059596;28;20472;-60
2022/03/06 05:49:51;;;;;;;39.30;12.38;;;;;;;;;;5060997;28;20033;-59
2022/03/06 05:52:16;;;;;;;37.25;13.23;;;;;;;;;;5064662;28;20028;-61
2022/03/06 05:54:42;;;;;;;39.42;13.25;;;;;;;;;;5060461;28;20054;-60
2022/03/06 05:57:08;;;;;;;38.97;13.95;;;;;;;;;;5055634;28;20078;-59
2022/03/06 05:59:33;;;;;;;36.58;13.95;;;;;;;;;;5058934;28;20032;-59
2022/03/06 06:01:59;;;;;;;40.50;14.57;;;;;;;;;;5059673;28;20033;-60
2022/03/06 06:04:24;;;;;;;43.47;14.55;;;;;;;;;;5062051;28;20725;-59
2022/03/06 06:06:50;;;;;;;37.92;13.77;;;;;;;;;;5062803;28;20438;-56
2022/03/06 06:09:15;;;;;;;37.72;13.93;;;;;;;;;;5053409;28;20021;-57
2022/03/06 06:11:40;;;;;;;43.05;15.32;;;;;;;;;;5059192;28;20116;-60
2022/03/06 06:14:06;;;;;;;36.35;13.52;;;;;;;;;;5054766;28;20630;-58
2022/03/06 06:16:31;;;;;;;43.40;14.55;;;;;;;;;;5060092;28;20086;-57
2022/03/06 06:18:57;;;;;;;43.00;15.45;;;;;;;;;;5060845;28;20039;-56
2022/03/06 06:21:23;;;;;;;41.75;15.45;;;;;;;;;;5064523;28;20029;-59
2022/03/06 06:23:49;;;;;;;46.22;16.60;;;;;;;;;;5056039;28;20075;-58
2022/03/06 06:26:14;;;;;;;50.42;16.30;;;;;;;;;;5060351;28;20127;-58
2022/03/06 06:28:40;;;;;;;53.72;16.58;;;;;;;;;;5057576;28;20021;-58
2022/03/06 06:31:06;;;;;;;50.40;16.30;;;;;;;;;;5061613;28;20116;-58
2022/03/06 06:33:32;;;;;;;49.85;17.10;;;;;;;;;;5059618;28;20036;-58
2022/03/06 06:35:57;;;;;;;49.50;16.45;;;;;;;;;;5054582;28;20036;-57
2022/03/06 06:38:26;;;;;;;49.38;16.17;;;;;;;;;;5061817;28;20052;-59
2022/03/06 06:40:52;;;;;;;51.30;16.83;;;;;;;;;;5060468;28;20025;-58
2022/03/06 06:43:18;;;;;;;42.15;14.95;;;;;;;;;;5054610;28;20040;-59
2022/03/06 06:45:44;;;;;;;44.20;14.75;;;;;;;;;;5059384;28;20121;-58
2022/03/06 06:48:09;;;;;;;41.83;14.00;;;;;;;;;;5060388;28;20476;-58
2022/03/06 06:50:35;;;;;;;47.30;14.55;;;;;;;;;;5053823;28;20029;-58
2022/03/06 06:53:00;;;;;;;46.50;14.52;;;;;;;;;;5060136;28;20025;-58
2022/03/06 06:55:25;;;;;;;38.63;13.30;;;;;;;;;;5063374;28;20397;-59
2022/03/06 06:57:51;;;;;;;41.20;14.05;;;;;;;;;;5062239;28;20032;-59
2022/03/06 07:00:17;;;;;;;49.17;15.38;;;;;;;;;;5062454;28;20032;-58
2022/03/06 07:02:42;;;;;;;53.58;16.77;;;;;;;;;;5060056;28;20091;-59
2022/03/06 07:05:09;;;;;;;48.33;16.90;;;;;;;;;;5056909;28;20055;-58
2022/03/06 07:07:35;;;;;;;42.97;15.50;;;;;;;;;;5052955;28;20112;-58
2022/03/06 07:10:01;;;;;;;47.88;16.38;;;;;;;;;;5055025;28;20487;-59
2022/03/06 07:12:26;;;;;;;56.30;19.90;;;;;;;;;;5052506;28;20028;-60
2022/03/06 07:14:52;;;;;;;54.83;18.80;;;;;;;;;;5060941;28;20109;-58
2022/03/06 07:17:17;;;;;;;47.80;16.08;;;;;;;;;;5060087;28;20035;-58
2022/03/06 07:19:44;;;;;;;52.58;17.40;;;;;;;;;;5069218;28;20107;-58
2022/03/06 07:22:10;;;;;;;52.05;15.38;;;;;;;;;;5061258;28;20028;-58
2022/03/06 07:24:35;;;;;;;54.17;16.60;;;;;;;;;;5059753;28;20054;-58
2022/03/06 07:27:01;;;;;;;50.42;16.30;;;;;;;;;;5056879;28;20020;-61
2022/03/06 07:29:26;;;;;;;52.17;16.95;;;;;;;;;;5053217;28;20025;-59
2022/03/06 07:31:51;;;;;;;56.83;17.38;;;;;;;;;;5062825;28;20468;-59
2022/03/06 07:34:17;;;;;;;51.90;16.60;;;;;;;;;;5060271;28;20047;-59
2022/03/06 07:36:42;;;;;;;47.45;17.38;;;;;;;;;;5064603;28;20025;-58
2022/03/06 07:39:08;;;;;;;56.80;17.40;;;;;;;;;;5057228;28;20374;-60
2022/03/06 07:41:33;;;;;;;55.08;17.38;;;;;;;;;;5060944;28;20090;-58
2022/03/06 07:43:58;;;;;;;83.85;23.15;;;;;;;;;;5057066;28;20123;-58
2022/03/06 07:46:24;;;;;;;120.38;29.00;;;;;;;;;;5060171;28;20135;-59
2022/03/06 07:48:49;;;;;;;95.97;26.83;;;;;;;;;;5060567;28;20017;-59
2022/03/06 07:51:15;;;;;;;74.57;22.98;;;;;;;;;;5064180;28;20031;-60
2022/03/06 07:53:40;;;;;;;62.83;19.58;;;;;;;;;;5056064;28;20037;-59
2022/03/06 07:56:06;;;;;;;92.05;24.45;;;;;;;;;;5058199;28;20029;-60
2022/03/06 07:58:31;;;;;;;76.40;21.70;;;;;;;;;;5061290;28;20055;-59
2022/03/06 08:00:57;;;;;;;73.28;25.13;;;;;;;;;;5065768;28;20119;-59
2022/03/06 08:03:22;;;;;;;72.85;24.75;;;;;;;;;;5057773;28;20021;-58
2022/03/06 08:05:47;;;;;;;66.00;23.77;;;;;;;;;;5065856;28;20111;-58
2022/03/06 08:08:13;;;;;;;55.97;21.35;;;;;;;;;;5062410;28;20025;-59
2022/03/06 08:10:38;;;;;;;67.20;22.35;;;;;;;;;;5060366;28;20028;-60
2022/03/06 08:13:04;;;;;;;50.78;18.40;;;;;;;;;;5061755;28;20067;-59
2022/03/06 08:15:29;;;;;;;55.88;19.65;;;;;;;;;;5060604;28;20047;-58
2022/03/06 08:17:55;;;;;;;58.40;18.92;;;;;;;;;;5059114;28;20032;-58
2022/03/06 08:20:21;;;;;;;52.30;18.02;;;;;;;;;;5065718;28;20091;-58
2022/03/06 08:22:46;;;;;;;49.33;17.52;;;;;;;;;;5056527;28;20139;-66
2022/03/06 08:25:12;;;;;;;54.35;18.42;;;;;;;;;;5057387;28;20020;-58
2022/03/06 08:27:37;;;;;;;45.17;17.20;;;;;;;;;;5061003;28;20032;-60
2022/03/06 08:30:05;;;;;;;49.40;17.30;;;;;;;;;;5054806;28;20027;-60
2022/03/06 08:32:31;;;;;;;59.05;19.02;;;;;;;;;;5057693;28;20033;-60
2022/03/06 08:34:57;;;;;;;62.28;21.63;;;;;;;;;;5057866;28;20082;-58
2022/03/06 08:37:22;;;;;;;62.70;19.75;;;;;;;;;;5059232;28;20123;-60
2022/03/06 08:39:49;;;;;;;59.38;19.63;;;;;;;;;;5064238;28;20032;-59
2022/03/06 08:42:15;;;;;;;57.90;19.00;;;;;;;;;;5058105;28;20044;-59
2022/03/06 08:44:41;;;;;;;55.03;18.73;;;;;;;;;;5056761;28;20024;-60
2022/03/06 08:47:07;;;;;;;59.72;19.25;;;;;;;;;;5057868;28;20021;-60
2022/03/06 08:49:33;;;;;;;61.40;20.15;;;;;;;;;;5059383;28;20541;-59
2022/03/06 08:51:58;;;;;;;59.53;19.98;;;;;;;;;;5056714;28;20028;-59
2022/03/06 08:54:24;;;;;;;57.03;19.60;;;;;;;;;;5065666;28;20055;-59
2022/03/06 08:56:50;;;;;;;55.65;19.98;;;;;;;;;;5064802;28;20108;-59
2022/03/06 08:59:16;;;;;;;53.10;18.20;;;;;;;;;;5063248;28;20028;-60
2022/03/06 09:01:41;;;;;;;51.90;17.98;;;;;;;;;;5054975;28;20029;-60
2022/03/06 09:04:07;;;;;;;44.83;16.55;;;;;;;;;;5058833;28;20032;-61
2022/03/06 09:06:33;;;;;;;48.42;17.25;;;;;;;;;;5059766;28;20033;-59
2022/03/06 09:08:58;;;;;;;43.92;16.25;;;;;;;;;;5057615;28;20120;-59
2022/03/06 09:11:24;;;;;;;47.53;16.20;;;;;;;;;;5059668;28;20032;-60
2022/03/06 09:13:49;;;;;;;42.30;15.90;;;;;;;;;;5057341;28;20031;-59
2022/03/06 09:16:15;;;;;;;41.50;15.88;;;;;;;;;;5054422;28;20136;-58
2022/03/06 09:18:40;;;;;;;48.38;18.27;;;;;;;;;;5058076;28;20384;-58
2022/03/06 09:21:06;;;;;;;37.70;13.70;;;;;;;;;;5060087;28;20021;-58
2022/03/06 09:23:31;;;;;;;36.95;14.40;;;;;;;;;;5063033;28;20474;-61
2022/03/06 09:25:57;;;;;;;38.80;15.27;;;;;;;;;;5061772;28;20029;-58
2022/03/06 09:28:22;;;;;;;53.42;21.17;;;;;;;;;;5053127;28;20025;-59
2022/03/06 09:30:47;;;;;;;31.33;12.77;;;;;;;;;;5054786;28;20025;-59
2022/03/06 09:33:14;;;;;;;32.28;12.15;;;;;;;;;;5055248;28;20028;-57
2022/03/06 09:35:40;;;;;;;30.50;11.65;;;;;;;;;;5057979;28;20028;-58
2022/03/06 09:38:06;;;;;;;37.15;14.95;;;;;;;;;;5060310;28;20074;-59
2022/03/06 09:40:31;;;;;;;42.38;16.05;;;;;;;;;;5063900;28;20093;-59
2022/03/06 09:42:57;;;;;;;44.63;15.85;;;;;;;;;;5054655;28;20487;-58
2022/03/06 09:45:26;;;;;;;43.10;14.77;;;;;;;;;;5053735;28;20098;-58
2022/03/06 09:47:53;;;;;;;34.05;14.68;;;;;;;;;;5060476;28;20108;-60
2022/03/06 09:50:19;;;;;;;30.10;12.48;;;;;;;;;;5056773;28;20032;-59
2022/03/06 09:52:45;;;;;;;30.20;12.23;;;;;;;;;;5054133;28;20029;-58
2022/03/06 09:55:11;;;;;;;25.40;11.68;;;;;;;;;;5051279;28;20028;-57
2022/03/06 09:57:37;;;;;;;26.08;11.43;;;;;;;;;;5050619;28;20090;-58
2022/03/06 10:00:08;;;;;;;32.80;13.20;;;;;;;;;;5059765;28;20032;-57
2022/03/06 10:02:51;;;;;;;34.25;13.38;;;;;;;;;;5051665;28;20158;-57
2022/03/06 10:05:37;;;;;;;27.70;12.07;;;;;;;;;;5066961;28;20112;-58
2022/03/06 10:08:27;;;;;;;31.45;11.77;;;;;;;;;;5060190;28;20056;-58
2022/03/06 10:11:00;;;;;;;24.23;9.45;;;;;;;;;;5055633;28;20068;-57
2022/03/06 10:13:31;;;;;;;29.00;11.02;;;;;;;;;;5065052;28;20047;-58
2022/03/06 10:16:05;;;;;;;26.80;11.75;;;;;;;;;;5055158;28;20029;-58
2022/03/06 10:18:39;;;;;;;31.25;11.77;;;;;;;;;;5051748;28;20032;-60
2022/03/06 10:21:33;;;;;;;27.20;11.48;;;;;;;;;;5059318;28;20029;-60
2022/03/06 10:24:06;;;;;;;28.90;11.57;;;;;;;;;;5049628;28;20033;-58
2022/03/06 10:26:32;;;;;;;25.95;11.10;;;;;;;;;;5055603;28;20048;-60
2022/03/06 10:29:05;;;;;;;26.52;11.63;;;;;;;;;;5058576;28;20025;-60
2022/03/06 10:31:34;;;;;;;26.70;11.43;;;;;;;;;;5058846;28;20033;-60
2022/03/06 10:34:12;;;;;;;28.60;11.10;;;;;;;;;;5058815;28;20442;-59
2022/03/06 10:36:40;;;;;;;26.98;11.13;;;;;;;;;;5059465;28;20033;-62
2022/03/06 10:39:14;;;;;;;27.13;11.25;;;;;;;;;;5063792;28;20104;-59
2022/03/06 10:41:42;;;;;;;28.60;13.10;;;;;;;;;;5062730;28;20109;-58
2022/03/06 10:44:11;;;;;;;27.15;11.80;;;;;;;;;;5057826;28;20025;-60
2022/03/06 10:46:37;;;;;;;24.67;11.43;;;;;;;;;;5056266;28;20027;-59
2022/03/06 10:49:08;;;;;;;26.52;12.23;;;;;;;;;;5056232;28;20119;-59
2022/03/06 10:51:43;;;;;;;27.38;12.68;;;;;;;;;;5052983;28;20131;-59
2022/03/06 10:54:10;;;;;;;23.95;11.82;;;;;;;;;;5059393;28;20025;-60
2022/03/06 10:56:36;;;;;;;26.88;12.40;;;;;;;;;;5063067;28;20073;-60
2022/03/06 10:59:05;;;;;;;23.58;10.82;;;;;;;;;;5049257;28;20029;-60
2022/03/06 11:01:31;;;;;;;24.52;12.43;;;;;;;;;;5055137;28;20029;-60
2022/03/06 11:04:04;;;;;;;23.08;11.82;;;;;;;;;;5061213;28;20024;-60
2022/03/06 11:06:38;;;;;;;25.77;12.00;;;;;;;;;;5056125;28;20032;-60
2022/03/06 11:09:05;;;;;;;24.80;12.02;;;;;;;;;;5062698;28;20040;-60
2022/03/06 11:11:32;;;;;;;23.70;11.18;;;;;;;;;;5051544;28;20045;-60
2022/03/06 11:13:57;;;;;;;24.98;11.60;;;;;;;;;;5059646;28;20068;-60
2022/03/06 11:16:23;;;;;;;26.45;12.63;;;;;;;;;;5059844;28;20056;-60
2022/03/06 11:18:49;;;;;;;24.25;11.40;;;;;;;;;;5059381;28;20028;-60
2022/03/06 11:21:15;;;;;;;22.00;11.20;;;;;;;;;;5061510;28;20394;-60
2022/03/06 11:23:51;;;;;;;25.83;11.68;;;;;;;;;;5058668;28;20029;-61
2022/03/06 11:26:29;;;;;;;22.48;11.65;;;;;;;;;;5060914;28;20039;-61
2022/03/06 11:29:25;;;;;;;24.77;10.95;;;;;;;;;;5058939;28;20009;-60
2022/03/06 11:31:53;;;;;;;24.42;11.63;;;;;;;;;;5056298;28;20040;-59
2022/03/06 11:34:27;;;;;;;22.85;11.75;;;;;;;;;;5062340;28;20035;-59
2022/03/06 11:36:54;;;;;;;25.02;11.70;;;;;;;;;;5064711;28;20033;-61
2022/03/06 11:39:28;;;;;;;25.60;11.75;;;;;;;;;;5064125;28;20024;-60
2022/03/06 11:41:53;;;;;;;22.38;11.15;;;;;;;;;;5059715;28;20055;-60
2022/03/06 11:44:36;;;;;;;25.70;11.75;;;;;;;;;;5058213;28;20073;-60
2022/03/06 11:47:12;;;;;;;24.45;11.50;;;;;;;;;;5061744;28;20051;-60
2022/03/06 11:49:38;;;;;;;23.80;11.48;;;;;;;;;;5058314;28;20454;-61
2022/03/06 11:52:24;;;;;;;25.58;11.48;;;;;;;;;;5060566;28;20107;-62
2022/03/06 11:54:49;;;;;;;25.48;11.23;;;;;;;;;;5057896;28;20028;-61
2022/03/06 11:57:34;;;;;;;21.65;10.65;;;;;;;;;;5056672;28;20067;-60
2022/03/06 12:00:17;;;;;;;21.98;10.93;;;;;;;;;;5062675;28;20360;-60
2022/03/06 12:02:49;;;;;;;23.48;11.80;;;;;;;;;;5055970;28;20025;-61
2022/03/06 12:05:16;;;;;;;24.98;11.60;;;;;;;;;;5061004;28;20025;-60
2022/03/06 12:07:42;;;;;;;22.00;11.63;;;;;;;;;;5062602;28;20032;-60
2022/03/06 12:10:12;;;;;;;23.00;12.48;;;;;;;;;;5066218;28;20107;-61
2022/03/06 12:12:38;;;;;;;24.08;11.43;;;;;;;;;;5059232;28;20035;-59
2022/03/06 12:15:16;;;;;;;23.15;11.82;;;;;;;;;;5059590;28;20035;-60
2022/03/06 12:17:43;;;;;;;25.00;12.07;;;;;;;;;;5059596;28;20150;-60
2022/03/06 12:20:08;;;;;;;25.17;12.85;;;;;;;;;;5057324;28;20456;-60
2022/03/06 12:22:42;;;;;;;22.05;12.77;;;;;;;;;;5055917;28;20124;-60
2022/03/06 12:25:11;;;;;;;25.13;12.60;;;;;;;;;;5058817;28;20028;-60
2022/03/06 12:27:41;;;;;;;28.65;15.35;;;;;;;;;;5062687;28;20086;-60
2022/03/06 12:30:17;;;;;;;25.25;14.07;;;;;;;;;;5058467;28;20107;-61
2022/03/06 12:32:43;;;;;;;23.38;11.00;;;;;;;;;;5056341;28;20050;-60
2022/03/06 12:35:16;;;;;;;29.25;15.40;;;;;;;;;;5060435;28;20322;-60
2022/03/06 12:37:53;;;;;;;32.75;17.58;;;;;;;;;;5054895;28;20123;-60
2022/03/06 12:40:24;;;;;;;28.70;15.50;;;;;;;;;;5065497;28;20496;-61
2022/03/06 12:42:57;;;;;;;24.60;12.45;;;;;;;;;;5056045;28;20029;-60
2022/03/06 12:45:23;;;;;;;22.02;12.40;;;;;;;;;;5058723;28;20029;-61
2022/03/06 12:47:49;;;;;;;24.83;12.00;;;;;;;;;;5064464;28;20021;-60
2022/03/06 12:50:17;;;;;;;22.27;11.90;;;;;;;;;;5063056;28;20039;-61
2022/03/06 12:52:43;;;;;;;26.98;14.00;;;;;;;;;;5060202;28;20140;-61
2022/03/06 12:55:15;;;;;;;22.23;12.55;;;;;;;;;;5066389;28;20452;-61
2022/03/06 12:57:53;;;;;;;24.77;11.85;;;;;;;;;;5050771;28;20033;-61
2022/03/06 13:00:23;;;;;;;23.75;11.30;;;;;;;;;;5060472;28;20081;-61
2022/03/06 13:02:51;;;;;;;22.30;11.73;;;;;;;;;;5061339;28;20518;-60
2022/03/06 13:05:20;;;;;;;21.23;11.32;;;;;;;;;;5062722;28;20032;-60
2022/03/06 13:07:46;;;;;;;21.77;11.90;;;;;;;;;;5062887;28;20519;-61
2022/03/06 13:10:13;;;;;;;23.83;12.52;;;;;;;;;;5062649;28;20163;-61
2022/03/06 13:12:47;;;;;;;22.08;12.07;;;;;;;;;;5064092;28;20082;-61
2022/03/06 13:15:12;;;;;;;21.63;10.93;;;;;;;;;;5054047;28;20040;-62
2022/03/06 13:17:38;;;;;;;23.13;11.73;;;;;;;;;;5058961;28;20032;-61
2022/03/06 13:20:04;;;;;;;28.42;12.35;;;;;;;;;;5058385;28;20621;-61
2022/03/06 13:22:29;;;;;;;22.48;12.20;;;;;;;;;;5060541;28;20086;-60
2022/03/06 13:24:57;;;;;;;21.42;12.90;;;;;;;;;;5059410;28;20029;-60
2022/03/06 13:27:25;;;;;;;24.30;13.23;;;;;;;;;;5052670;28;20023;-60
2022/03/06 13:30:05;;;;;;;20.20;12.07;;;;;;;;;;5057904;28;20056;-61
2022/03/06 13:32:33;;;;;;;19.25;10.85;;;;;;;;;;5055145;28;20032;-61
2022/03/06 13:35:00;;;;;;;23.77;12.93;;;;;;;;;;5058252;28;20029;-62
2022/03/06 13:37:35;;;;;;;24.67;12.60;;;;;;;;;;5059541;28;20526;-60
2022/03/06 13:40:03;;;;;;;22.48;12.38;;;;;;;;;;5059473;28;20024;-61
2022/03/06 13:42:35;;;;;;;25.27;14.27;;;;;;;;;;5058626;28;21829;-59
2022/03/06 13:45:05;;;;;;;25.13;13.30;;;;;;;;;;5063557;28;20031;-60
2022/03/06 13:47:46;;;;;;;20.13;11.68;;;;;;;;;;5048147;28;20106;-61
2022/03/06 13:50:26;;;;;;;25.55;12.25;;;;;;;;;;5052514;28;20059;-60
2022/03/06 13:52:52;;;;;;;24.13;12.75;;;;;;;;;;5051455;28;20029;-61
2022/03/06 13:55:18;;;;;;;21.73;12.18;;;;;;;;;;5063370;28;20139;-61
2022/03/06 13:58:02;;;;;;;22.88;12.93;;;;;;;;;;5062653;28;20617;-61
2022/03/06 14:00:30;;;;;;;23.17;13.60;;;;;;;;;;5061498;28;20028;-61
2022/03/06 14:03:03;;;;;;;22.77;12.95;;;;;;;;;;5058491;28;20131;-61
2022/03/06 14:05:32;;;;;;;22.55;13.15;;;;;;;;;;5054091;28;20070;-61
2022/03/06 14:08:20;;;;;;;21.83;13.23;;;;;;;;;;5051505;28;20047;-61
2022/03/06 14:11:09;;;;;;;32.70;17.63;;;;;;;;;;5059128;28;20067;-62
2022/03/06 14:13:44;;;;;;;29.27;16.02;;;;;;;;;;5060809;28;20055;-61
2022/03/06 14:16:30;;;;;;;33.45;19.27;;;;;;;;;;5058959;28;20482;-61
2022/03/06 14:18:58;;;;;;;25.42;14.18;;;;;;;;;;5061120;28;20054;-62
2022/03/06 14:21:40;;;;;;;25.35;14.35;;;;;;;;;;5056705;28;20507;-61